Flight Number: EUR2315 Duration: 1:00
Departure: Munich Int'l (EDDM) at 08:00 Distance: 234 Nm
Arrival: Zagreb / Pleso (LDZA) at 09:00 Equipment: CRJ700

Weather Information
Munchen, Germany (EDDM) 48-21N 011-47E Oct 17, 2018 - 11:20 PM EDT / 2018.10.18 0320 UTC
Wind: from the S (190 degrees) at 3 MPH (3 KT) (direction variable):0
Visibility: 3 mile(s):0 Weather: patches of fog Temperature: 37 F (3 C) Dew Point: 37 F (3 C) Relative Humidity: 100% Pressure (altimeter): 30.09 in. Hg (1019 hPa)
ob: EDDM 180320Z 19003KT 160V220 5000 0900E R26R/P2000N R08R/0600VP2000U BCFG NSC 03/03 Q1019 NOSIG cycle: 3
Sunrise: 05:41 Sunset: 16:14 (UTC)

Zagreb / Pleso, Croatia (LDZA) 45-44N 016-04E 107M Oct 17, 2018 - 11:00 PM EDT / 2018.10.18 0300 UTC
Wind: from the S (190 degrees) at 2 MPH (2 KT):0
Visibility: 3 mile(s):0 Weather: shallow fog Temperature: 51 F (11 C) Dew Point: 50 F (10 C) Relative Humidity: 93% Pressure (altimeter): 30.06 in. Hg (1018 hPa)
ob: LDZA 180300Z 19002KT 6000 MIFG NSC 11/10 Q1018 NOSIG cycle: 3
Sunrise: 05:20 Sunset: 16:01 (UTC)

TAF:2018/10/17 18:27 TAF LDZA 171725Z 1718/1818 VRB02KT CAVOK TX21/1813Z TN09/1804Z TEMPO 1800/1809 3000 BR PROB30 TEMPO 1804/1807 0300 FG BKN001

Previous Pireps for this route
Date Aircraft Flight time Fuel used Landing rate On time
2015-01-23CRJ7001.0427970Yes
2015-03-12CRJ70000.482565-168Yes
2015-03-28CRJ70000.582600-118Yes
2015-05-07CRJ7000.5128570Yes
2015-05-26CRJ7000.4725900Yes
2015-05-31CRJ7000.4826830Yes
2015-06-03CRJ7000.5126170Yes
2015-07-15CRJ7000.4427730Yes
2015-10-08DHC801.123741-130Yes
(pireps marked green are flown by you)

Route map